Time;durP1;ratioP1;P1;durP2;ratioP2;P2;SDS_P1;SDS_P2;PMS_P1;PMS_P2;Temp;Humidity;BMP_temperature;BMP_pressure;BME280_temperature;BME280_humidity;BME280_pressure;Samples;Min_cycle;Max_cycle;Signal;HPM_P1;HPM_P2
2023/07/15 00:01:27;;;;;;;0.00;0.00;;;;;;;26.68;49.63;100492.03;5051413;28;20072;-71
2023/07/15 00:03:54;;;;;;;0.00;0.00;;;;;;;26.66;49.26;100491.56;5051966;28;20060;-74
2023/07/15 00:06:21;;;;;;;0.00;0.00;;;;;;;26.43;49.78;100482.06;5051341;28;20037;-73
2023/07/15 00:08:46;;;;;;;0.00;0.00;;;;;;;26.65;48.79;100481.66;5051114;28;20593;-73
2023/07/15 00:11:26;;;;;;;0.00;0.00;;;;;;;26.77;48.72;100480.94;5035403;28;20037;-72
2023/07/15 00:13:52;;;;;;;0.00;0.00;;;;;;;26.69;48.95;100474.31;5031152;28;20025;-72
2023/07/15 00:16:18;;;;;;;0.00;0.00;;;;;;;26.77;48.35;100473.44;5031239;28;20032;-73
2023/07/15 00:18:45;;;;;;;0.00;0.00;;;;;;;26.64;48.71;100470.97;5031726;28;20393;-72
2023/07/15 00:21:31;;;;;;;0.00;0.00;;;;;;;26.51;48.51;100470.16;5031240;28;20034;-72
2023/07/15 00:23:58;;;;;;;0.00;0.00;;;;;;;26.73;48.41;100457.94;5031196;28;20163;-73
2023/07/15 00:26:27;;;;;;;0.00;0.00;;;;;;;26.69;48.60;100457.78;5030223;28;20039;-72
2023/07/15 00:28:52;;;;;;;0.00;0.00;;;;;;;26.48;48.82;100457.03;5031140;28;20105;-72
2023/07/15 00:31:19;;;;;;;0.00;0.00;;;;;;;26.32;48.31;100458.81;5031121;28;20033;-73
2023/07/15 00:33:45;;;;;;;0.00;0.00;;;;;;;26.61;49.05;100455.13;5031756;28;20025;-73
2023/07/15 00:36:12;;;;;;;0.00;0.00;;;;;;;26.48;48.54;100454.28;5030889;28;20029;-73
2023/07/15 00:38:38;;;;;;;0.00;0.00;;;;;;;26.57;48.33;100446.75;5029520;28;20044;-74
2023/07/15 00:41:10;;;;;;;0.00;0.00;;;;;;;26.52;47.63;100446.94;5030825;28;20033;-72
2023/07/15 00:43:58;;;;;;;0.00;0.00;;;;;;;26.81;46.98;100451.53;5030478;28;20037;-73
2023/07/15 00:46:31;;;;;;;0.00;0.00;;;;;;;26.55;47.89;100446.28;5030693;28;20029;-72
2023/07/15 00:49:04;;;;;;;0.00;0.00;;;;;;;26.36;47.50;100443.22;5031044;28;20025;-73
2023/07/15 00:51:35;;;;;;;0.00;0.00;;;;;;;26.39;47.57;100434.28;5030604;28;20095;-73
2023/07/15 00:54:03;;;;;;;0.00;0.00;;;;;;;26.62;47.34;100429.97;5030656;28;20439;-73
2023/07/15 00:56:30;;;;;;;0.00;0.00;;;;;;;26.44;47.79;100430.50;5030879;28;20550;-73
2023/07/15 00:58:56;;;;;;;0.00;0.00;;;;;;;26.45;46.95;100430.19;5030698;28;20045;-73
2023/07/15 01:01:22;;;;;;;0.00;0.00;;;;;;;26.51;46.97;100425.25;5030900;28;20469;-74
2023/07/15 01:03:48;;;;;;;0.00;0.00;;;;;;;26.62;46.65;100420.91;5031430;28;20031;-73
2023/07/15 01:06:14;;;;;;;0.00;0.00;;;;;;;26.43;46.85;100420.63;5030450;28;20029;-72
2023/07/15 01:08:39;;;;;;;0.00;0.00;;;;;;;26.57;46.73;100423.88;5030438;28;20068;-73
2023/07/15 01:11:06;;;;;;;0.00;0.00;;;;;;;26.49;46.99;100425.59;5030722;28;20711;-74
2023/07/15 01:13:35;;;;;;;0.00;0.00;;;;;;;26.62;46.53;100418.13;5031037;28;20072;-74
2023/07/15 01:16:00;;;;;;;0.00;0.00;;;;;;;26.39;46.58;100425.22;5031073;28;20432;-73
2023/07/15 01:18:27;;;;;;;0.00;0.00;;;;;;;26.45;46.26;100418.34;5012346;28;20076;-73
2023/07/15 01:20:52;;;;;;;0.00;0.00;;;;;;;26.56;47.03;100422.25;5030629;28;20041;-72
2023/07/15 01:23:18;;;;;;;0.00;0.00;;;;;;;26.31;46.08;100415.91;5029767;28;20484;-73
2023/07/15 01:25:43;;;;;;;0.00;0.00;;;;;;;26.36;45.89;100418.41;5030414;28;20428;-73
2023/07/15 01:28:09;;;;;;;0.00;0.00;;;;;;;26.27;47.15;100427.94;5030794;28;20055;-73
2023/07/15 01:30:35;;;;;;;0.00;0.00;;;;;;;26.34;45.95;100428.97;5030076;28;20057;-73
2023/07/15 01:33:00;;;;;;;0.00;0.00;;;;;;;26.51;45.54;100428.81;5030640;28;20427;-72
2023/07/15 01:35:25;;;;;;;0.00;0.00;;;;;;;26.29;45.75;100425.63;5030183;28;20033;-71
2023/07/15 01:37:51;;;;;;;0.00;0.00;;;;;;;26.06;46.50;100428.75;5029691;28;20103;-73
2023/07/15 01:40:17;;;;;;;0.00;0.00;;;;;;;25.93;46.98;100429.03;5030822;28;20029;-73
2023/07/15 01:42:42;;;;;;;0.00;0.00;;;;;;;26.42;45.53;100430.84;5029445;28;20037;-72
2023/07/15 01:45:11;;;;;;;0.00;0.00;;;;;;;26.38;46.34;100427.16;5050073;28;20412;-72
2023/07/15 01:47:37;;;;;;;0.00;0.00;;;;;;;26.24;46.48;100421.13;5049718;28;20025;-73
2023/07/15 01:50:05;;;;;;;0.00;0.00;;;;;;;26.10;46.56;100424.19;5049653;28;20029;-73
2023/07/15 01:52:31;;;;;;;0.00;0.00;;;;;;;26.50;45.74;100423.63;5050391;28;20111;-73
2023/07/15 01:54:56;;;;;;;0.00;0.00;;;;;;;26.37;46.49;100425.56;5049451;28;20102;-74
2023/07/15 01:57:22;;;;;;;0.00;0.00;;;;;;;26.41;45.21;100426.50;5031800;28;20025;-74
2023/07/15 01:59:48;;;;;;;0.00;0.00;;;;;;;25.90;46.19;100425.00;5049587;28;20607;-73
2023/07/15 02:02:13;;;;;;;0.00;0.00;;;;;;;25.83;46.28;100419.22;5046138;28;20075;-74
2023/07/15 02:04:38;;;;;;;0.00;0.00;;;;;;;26.13;46.28;100421.91;5030235;28;20493;-74
2023/07/15 02:07:04;;;;;;;0.00;0.00;;;;;;;25.82;47.03;100423.13;5029451;28;20044;-73
2023/07/15 02:09:30;;;;;;;0.00;0.00;;;;;;;25.90;47.26;100413.19;5029647;28;20382;-72
2023/07/15 02:11:55;;;;;;;0.00;0.00;;;;;;;25.79;47.78;100421.03;5030084;28;20052;-73
2023/07/15 02:14:21;;;;;;;0.00;0.00;;;;;;;25.80;47.70;100417.16;5029613;28;20039;-72
2023/07/15 02:16:46;;;;;;;0.00;0.00;;;;;;;26.01;47.42;100428.97;5029141;28;20033;-73
2023/07/15 02:19:12;;;;;;;0.00;0.00;;;;;;;25.81;47.17;100424.25;5030479;28;20009;-72
2023/07/15 02:21:37;;;;;;;0.00;0.00;;;;;;;25.74;47.84;100413.00;5029465;28;20044;-72
2023/07/15 02:24:03;;;;;;;0.00;0.00;;;;;;;25.81;47.75;100415.19;5029311;28;20037;-74
2023/07/15 02:26:29;;;;;;;0.00;0.00;;;;;;;25.78;47.62;100415.88;5028999;28;20500;-72
2023/07/15 02:28:57;;;;;;;0.00;0.00;;;;;;;25.68;48.14;100422.59;5029334;28;20029;-75
2023/07/15 02:31:22;;;;;;;0.00;0.00;;;;;;;25.85;47.41;100418.88;5029629;28;20108;-73
2023/07/15 02:33:48;;;;;;;0.00;0.00;;;;;;;25.41;48.27;100411.31;5029337;28;20125;-73
2023/07/15 02:36:15;;;;;;;0.00;0.00;;;;;;;25.61;47.15;100427.81;5029245;28;20083;-72
2023/07/15 02:38:40;;;;;;;0.00;0.00;;;;;;;25.67;47.18;100420.19;5029252;28;20064;-74
2023/07/15 02:41:05;;;;;;;0.00;0.00;;;;;;;25.70;46.97;100430.50;5029367;28;20500;-73
2023/07/15 02:43:31;;;;;;;0.00;0.00;;;;;;;25.26;47.70;100434.66;5029417;28;20048;-72
2023/07/15 02:45:57;;;;;;;0.00;0.00;;;;;;;25.46;47.30;100433.09;5027292;28;20029;-75
2023/07/15 02:48:22;;;;;;;0.00;0.00;;;;;;;25.50;47.45;100423.84;5029513;28;20045;-72
2023/07/15 02:50:52;;;;;;;0.00;0.00;;;;;;;25.76;47.01;100431.94;5033401;28;20038;-72
2023/07/15 02:53:18;;;;;;;0.00;0.00;;;;;;;25.68;46.85;100435.53;5038920;28;20041;-73
2023/07/15 02:55:43;;;;;;;0.00;0.00;;;;;;;25.71;47.65;100434.91;5053162;28;20087;-73
2023/07/15 02:58:08;;;;;;;0.00;0.00;;;;;;;25.40;47.15;100435.25;5052768;28;20483;-74
2023/07/15 03:00:36;;;;;;;0.00;0.00;;;;;;;25.03;48.38;100434.16;5033208;28;20044;-73
2023/07/15 03:03:01;;;;;;;0.00;0.00;;;;;;;25.17;47.81;100436.66;5033233;28;20042;-72
2023/07/15 03:05:28;;;;;;;0.00;0.00;;;;;;;25.43;47.66;100439.28;5033455;28;20040;-73
2023/07/15 03:07:54;;;;;;;0.00;0.00;;;;;;;24.76;49.15;100436.53;5032720;28;20027;-73
2023/07/15 03:10:19;;;;;;;0.00;0.00;;;;;;;25.53;47.18;100438.91;5033441;28;20049;-73
2023/07/15 03:12:45;;;;;;;0.00;0.00;;;;;;;24.97;48.53;100437.41;5032875;28;20045;-72
2023/07/15 03:15:11;;;;;;;0.00;0.00;;;;;;;25.45;47.22;100437.81;5032721;28;20040;-73
2023/07/15 03:17:36;;;;;;;0.00;0.00;;;;;;;25.46;47.56;100439.44;5032964;28;20042;-72
2023/07/15 03:23:01;;;;;;;0.00;0.00;;;;;;;24.98;48.30;100445.31;4951478;29;20027;-72
2023/07/15 03:25:26;;;;;;;0.00;0.00;;;;;;;25.01;49.61;100438.34;4952223;29;20031;-73
2023/07/15 03:27:52;;;;;;;0.00;0.00;;;;;;;25.12;48.81;100442.34;4951574;28;20627;-74
2023/07/15 03:30:18;;;;;;;0.00;0.00;;;;;;;24.98;49.38;100444.53;4951625;29;20039;-75
2023/07/15 03:32:44;;;;;;;0.00;0.00;;;;;;;24.91;49.44;100447.78;4951336;29;20046;-73
2023/07/15 03:35:10;;;;;;;0.00;0.00;;;;;;;24.84;49.47;100444.75;4951565;29;20177;-72
2023/07/15 03:37:38;;;;;;;0.00;0.00;;;;;;;24.80;49.45;100446.53;4951510;28;20031;-72
2023/07/15 03:40:07;;;;;;;0.00;0.00;;;;;;;25.08;49.02;100442.19;4970861;28;20034;-74
2023/07/15 03:42:32;;;;;;;0.00;0.00;;;;;;;24.97;49.48;100438.22;4970617;28;20043;-73
2023/07/15 03:44:58;;;;;;;0.00;0.00;;;;;;;24.96;49.74;100430.31;4988427;28;20039;-72
2023/07/15 03:47:23;;;;;;;0.00;0.00;;;;;;;25.07;50.07;100432.34;4990398;28;20038;-74
2023/07/15 03:49:48;;;;;;;0.00;0.00;;;;;;;25.10;49.78;100428.91;4990090;28;20031;-72
2023/07/15 03:52:14;;;;;;;0.00;0.00;;;;;;;24.97;49.84;100435.47;4990337;28;20030;-74
2023/07/15 03:54:40;;;;;;;0.00;0.00;;;;;;;24.95;49.46;100431.44;4986530;28;20543;-73
2023/07/15 03:57:05;;;;;;;0.00;0.00;;;;;;;24.86;49.86;100433.41;4990218;28;20095;-73
2023/07/15 03:59:31;;;;;;;0.00;0.00;;;;;;;24.85;50.47;100432.59;4992209;28;20580;-73
2023/07/15 04:01:56;;;;;;;0.10;0.10;;;;;;;24.82;49.95;100436.03;4988899;28;20030;-73
2023/07/15 04:04:22;;;;;;;0.10;0.10;;;;;;;24.86;50.05;100441.66;4991538;28;20052;-71
2023/07/15 04:06:49;;;;;;;0.00;0.00;;;;;;;24.81;50.27;100444.56;4995757;28;20039;-73
2023/07/15 04:09:16;;;;;;;0.00;0.00;;;;;;;24.87;49.89;100446.81;5011394;28;20397;-72
2023/07/15 04:11:42;;;;;;;0.00;0.00;;;;;;;25.00;49.52;100443.03;5011671;28;20030;-72
2023/07/15 04:14:08;;;;;;;0.00;0.00;;;;;;;24.64;50.40;100448.19;4994126;28;20067;-74
2023/07/15 04:16:33;;;;;;;0.00;0.00;;;;;;;24.80;50.20;100451.22;4993613;28;20290;-74
2023/07/15 04:18:59;;;;;;;0.00;0.00;;;;;;;24.45;51.11;100455.19;5011997;28;20122;-74
2023/07/15 04:21:24;;;;;;;0.00;0.00;;;;;;;24.78;50.05;100457.06;5011877;28;20034;-72
2023/07/15 04:23:51;;;;;;;0.00;0.00;;;;;;;24.84;50.66;100457.69;5011610;28;20049;-73
2023/07/15 04:26:22;;;;;;;0.00;0.00;;;;;;;24.69;51.62;100456.22;5011771;28;20088;-73
2023/07/15 04:28:48;;;;;;;0.00;0.00;;;;;;;24.80;51.15;100445.72;4993828;28;20049;-73
2023/07/15 04:31:13;;;;;;;0.00;0.00;;;;;;;24.94;51.06;100460.06;5012024;28;20051;-73
2023/07/15 04:33:38;;;;;;;0.00;0.00;;;;;;;24.88;51.41;100472.38;5011829;28;20034;-73
2023/07/15 04:36:04;;;;;;;0.00;0.00;;;;;;;24.79;52.35;100461.41;5011427;28;20038;-73
2023/07/15 04:38:29;;;;;;;0.00;0.00;;;;;;;24.85;51.47;100464.78;5010052;28;20549;-73
2023/07/15 04:40:55;;;;;;;0.00;0.00;;;;;;;24.85;51.66;100470.28;5011582;28;20018;-74
2023/07/15 04:43:22;;;;;;;0.00;0.00;;;;;;;24.52;51.99;100471.97;5012230;28;20049;-73
2023/07/15 04:45:49;;;;;;;0.00;0.00;;;;;;;24.85;51.24;100460.09;5030764;28;20065;-73
2023/07/15 04:48:14;;;;;;;0.00;0.00;;;;;;;24.56;52.14;100471.00;5031347;28;20564;-73
2023/07/15 04:50:40;;;;;;;0.00;0.00;;;;;;;24.99;51.35;100466.19;5012129;28;20068;-72
2023/07/15 04:53:05;;;;;;;0.00;0.00;;;;;;;25.12;49.97;100462.41;5015364;28;20393;-73
2023/07/15 04:55:31;;;;;;;0.00;0.00;;;;;;;25.04;50.54;100466.00;5030935;28;20042;-73
2023/07/15 04:57:56;;;;;;;0.00;0.00;;;;;;;24.94;50.26;100466.34;5030521;28;20456;-73
2023/07/15 05:00:22;;;;;;;0.00;0.00;;;;;;;25.04;50.14;100468.75;5030744;28;20029;-73
2023/07/15 05:02:49;;;;;;;0.00;0.00;;;;;;;25.35;50.37;100464.88;5030783;28;20063;-73
2023/07/15 05:05:15;;;;;;;0.00;0.00;;;;;;;25.26;50.35;100464.91;5031059;28;20025;-72
2023/07/15 05:07:40;;;;;;;0.00;0.00;;;;;;;25.27;50.21;100475.59;5030175;28;20037;-73
2023/07/15 05:10:06;;;;;;;0.00;0.00;;;;;;;25.24;50.82;100465.25;5030174;28;20135;-74
2023/07/15 05:12:31;;;;;;;0.00;0.00;;;;;;;25.55;49.92;100461.41;5029966;28;20025;-74
2023/07/15 05:14:56;;;;;;;0.00;0.00;;;;;;;25.57;49.79;100468.16;5030313;28;20033;-73
2023/07/15 05:17:22;;;;;;;0.00;0.00;;;;;;;25.34;51.39;100474.25;5028583;28;20044;-74
2023/07/15 05:19:47;;;;;;;0.00;0.00;;;;;;;25.53;50.21;100483.75;5030944;28;20566;-76
2023/07/15 05:22:13;;;;;;;0.00;0.00;;;;;;;25.65;50.68;100472.78;5030354;28;20037;-73
2023/07/15 05:24:38;;;;;;;0.00;0.00;;;;;;;25.77;50.69;100481.13;5030203;28;20045;-73
2023/07/15 05:27:04;;;;;;;0.00;0.00;;;;;;;25.99;50.21;100483.56;5030170;28;20224;-73
2023/07/15 05:29:30;;;;;;;0.00;0.00;;;;;;;25.93;50.35;100492.34;5030250;28;20029;-72
2023/07/15 05:31:55;;;;;;;0.00;0.00;;;;;;;25.71;49.91;100492.69;5030703;28;20029;-73
2023/07/15 05:34:20;;;;;;;0.00;0.00;;;;;;;25.84;49.60;100499.88;5030277;28;20032;-73
2023/07/15 05:36:47;;;;;;;0.00;0.00;;;;;;;25.67;49.87;100487.03;5030208;28;20034;-73
2023/07/15 05:39:13;;;;;;;0.00;0.00;;;;;;;25.89;49.77;100489.47;5030372;28;20382;-71
2023/07/15 05:41:39;;;;;;;0.00;0.00;;;;;;;25.92;49.56;100499.84;5027221;28;20025;-73
2023/07/15 05:44:04;;;;;;;0.00;0.00;;;;;;;25.94;49.52;100496.75;5021344;28;20037;-72
2023/07/15 05:46:30;;;;;;;0.00;0.00;;;;;;;26.09;50.32;100499.72;5029820;28;20567;-73
2023/07/15 05:48:55;;;;;;;0.00;0.00;;;;;;;26.14;50.47;100498.72;5012154;28;20041;-74
2023/07/15 05:51:22;;;;;;;0.00;0.00;;;;;;;26.49;49.86;100500.00;5010172;28;20500;-72
2023/07/15 05:53:47;;;;;;;0.00;0.00;;;;;;;26.09;51.36;100501.66;5009700;28;20116;-74
2023/07/15 05:56:13;;;;;;;0.00;0.00;;;;;;;26.48;50.92;100498.38;5010792;28;20038;-72
2023/07/15 05:58:38;;;;;;;0.00;0.00;;;;;;;26.61;50.62;100496.47;5029063;28;20041;-73
2023/07/15 06:01:04;;;;;;;0.00;0.00;;;;;;;26.64;50.52;100498.53;5011917;28;20049;-73
2023/07/15 06:03:30;;;;;;;0.00;0.00;;;;;;;26.42;51.66;100496.16;5029934;28;20420;-72
2023/07/15 06:06:05;;;;;;;0.00;0.00;;;;;;;26.14;51.84;100501.47;5030039;28;20030;-74
2023/07/15 06:08:31;;;;;;;0.00;0.00;;;;;;;26.37;50.51;100502.72;5029711;28;20113;-72
2023/07/15 06:10:57;;;;;;;0.00;0.00;;;;;;;26.65;49.99;100500.16;5029684;28;20029;-73
2023/07/15 06:13:23;;;;;;;0.00;0.00;;;;;;;26.76;49.04;100502.19;5029572;28;20130;-73
2023/07/15 06:15:52;;;;;;;0.00;0.00;;;;;;;26.82;49.33;100502.75;5028964;28;20033;-73
2023/07/15 06:18:17;;;;;;;0.00;0.00;;;;;;;26.93;48.85;100501.16;5029463;28;20033;-74
2023/07/15 06:20:43;;;;;;;0.00;0.00;;;;;;;26.41;49.95;100495.38;5029240;28;20040;-73
2023/07/15 06:23:09;;;;;;;0.00;0.00;;;;;;;26.66;50.12;100497.06;5029556;28;20037;-72
2023/07/15 06:25:37;;;;;;;0.00;0.00;;;;;;;26.74;50.95;100495.38;5029301;28;20493;-74
2023/07/15 06:28:03;;;;;;;0.00;0.00;;;;;;;26.68;50.92;100492.03;5029233;28;20102;-72
2023/07/15 06:30:28;;;;;;;0.00;0.00;;;;;;;27.01;51.23;100491.97;5029045;28;20090;-74
2023/07/15 06:32:54;;;;;;;0.00;0.00;;;;;;;27.10;50.78;100489.94;5029680;28;20307;-73
2023/07/15 06:35:20;;;;;;;0.00;0.00;;;;;;;27.09;51.33;100502.13;5010734;28;20037;-72
2023/07/15 06:37:49;;;;;;;0.00;0.00;;;;;;;26.42;53.61;100508.00;5029539;28;20405;-72
2023/07/15 06:40:16;;;;;;;0.00;0.00;;;;;;;26.61;53.19;100497.25;5029026;28;20121;-72
2023/07/15 06:42:43;;;;;;;0.00;0.00;;;;;;;27.13;51.97;100503.03;5029329;28;20442;-74
2023/07/15 06:45:09;;;;;;;0.00;0.00;;;;;;;26.76;53.40;100504.94;5028797;28;20389;-75
2023/07/15 06:47:34;;;;;;;0.00;0.00;;;;;;;26.76;53.81;100502.19;5011252;28;20033;-72
2023/07/15 06:50:00;;;;;;;0.00;0.00;;;;;;;27.14;52.82;100509.38;5029656;28;20022;-74
2023/07/15 06:52:25;;;;;;;0.00;0.00;;;;;;;27.60;51.98;100500.63;5029289;28;20060;-74
2023/07/15 06:54:51;;;;;;;0.00;0.00;;;;;;;27.06;53.46;100497.28;5028878;28;20064;-73
2023/07/15 06:57:16;;;;;;;0.00;0.00;;;;;;;26.96;52.62;100492.22;5029276;28;20053;-72
2023/07/15 06:59:42;;;;;;;0.00;0.00;;;;;;;27.74;51.67;100493.63;5029120;28;20799;-73
2023/07/15 07:02:07;;;;;;;0.00;0.00;;;;;;;28.04;51.04;100498.88;5029650;28;20036;-72
2023/07/15 07:04:33;;;;;;;0.00;0.00;;;;;;;28.13;50.96;100503.09;5029326;28;20038;-73
2023/07/15 07:06:58;;;;;;;0.00;0.00;;;;;;;28.06;50.61;100499.31;5029156;28;20033;-74
2023/07/15 07:09:23;;;;;;;0.00;0.00;;;;;;;27.72;51.73;100495.91;5029226;28;20091;-73
2023/07/15 07:11:49;;;;;;;0.00;0.00;;;;;;;28.31;50.98;100501.66;5029116;28;20504;-72
2023/07/15 07:14:14;;;;;;;0.00;0.00;;;;;;;28.07;51.42;100501.72;5029758;28;20026;-73
2023/07/15 07:16:40;;;;;;;0.00;0.00;;;;;;;28.03;51.47;100497.28;5028466;28;20041;-73
2023/07/15 07:19:05;;;;;;;0.00;0.00;;;;;;;28.28;51.37;100498.78;5028916;28;20048;-74
2023/07/15 07:21:30;;;;;;;0.00;0.00;;;;;;;28.67;49.70;100488.81;5028598;28;20057;-74
2023/07/15 07:23:56;;;;;;;0.00;0.00;;;;;;;27.94;51.95;100502.06;5028968;28;20425;-73
2023/07/15 07:26:21;;;;;;;0.00;0.00;;;;;;;28.87;49.20;100496.09;5028667;28;20025;-73
2023/07/15 07:28:47;;;;;;;0.00;0.00;;;;;;;28.26;51.22;100499.16;5029384;28;20014;-74
2023/07/15 07:31:13;;;;;;;0.00;0.00;;;;;;;28.34;50.92;100500.94;5028922;28;20041;-72
2023/07/15 07:33:41;;;;;;;0.00;0.00;;;;;;;28.60;50.59;100508.78;5028999;28;20037;-72
2023/07/15 07:36:06;;;;;;;0.00;0.00;;;;;;;28.56;51.28;100508.69;5031661;28;20515;-73
2023/07/15 07:38:32;;;;;;;0.00;0.00;;;;;;;29.48;49.41;100517.44;5032183;28;20022;-72
2023/07/15 07:41:07;;;;;;;0.00;0.00;;;;;;;29.38;49.83;100520.78;5032618;28;20052;-73
2023/07/15 07:43:34;;;;;;;0.00;0.00;;;;;;;29.23;50.10;100520.75;5039005;28;20037;-73
2023/07/15 07:46:00;;;;;;;0.00;0.00;;;;;;;28.70;51.50;100519.34;5038245;28;20440;-73
2023/07/15 07:48:26;;;;;;;0.00;0.00;;;;;;;28.34;52.26;100534.09;5032411;28;20524;-73
2023/07/15 07:50:52;;;;;;;0.00;0.00;;;;;;;28.74;52.38;100531.31;5031973;28;20034;-71
2023/07/15 07:53:17;;;;;;;0.00;0.00;;;;;;;28.49;53.52;100536.13;5032169;28;20121;-73
2023/07/15 07:55:42;;;;;;;0.00;0.00;;;;;;;29.24;51.36;100528.72;5032070;28;20034;-72
2023/07/15 07:58:08;;;;;;;0.00;0.00;;;;;;;28.84;51.73;100527.22;5032029;28;20037;-72
2023/07/15 08:00:33;;;;;;;0.00;0.00;;;;;;;29.08;51.35;100525.13;5031875;28;20029;-72
2023/07/15 08:02:58;;;;;;;0.00;0.00;;;;;;;28.95;50.95;100526.38;5031719;28;20030;-71
2023/07/15 08:05:24;;;;;;;0.00;0.00;;;;;;;29.64;49.95;100519.38;5031748;28;20040;-71
2023/07/15 08:07:50;;;;;;;0.00;0.00;;;;;;;29.72;50.25;100523.97;5024538;28;20393;-72
2023/07/15 08:10:15;;;;;;;0.00;0.00;;;;;;;28.77;51.92;100524.28;5027702;28;20034;-74
2023/07/15 08:12:41;;;;;;;0.00;0.00;;;;;;;29.06;52.14;100530.19;5031687;28;20045;-73
2023/07/15 08:15:07;;;;;;;0.00;0.00;;;;;;;29.36;51.29;100536.13;5031815;28;20025;-73
2023/07/15 08:17:33;;;;;;;0.00;0.00;;;;;;;29.01;52.66;100535.97;5031296;28;20080;-73
2023/07/15 08:19:58;;;;;;;0.00;0.00;;;;;;;29.56;49.38;100546.13;5032153;28;20030;-72
2023/07/15 08:22:24;;;;;;;0.00;0.00;;;;;;;29.71;49.14;100550.84;5031654;28;20037;-74
2023/07/15 08:24:49;;;;;;;0.00;0.00;;;;;;;29.10;50.80;100544.13;5031599;28;20033;-73
2023/07/15 08:27:15;;;;;;;0.00;0.00;;;;;;;28.51;51.83;100536.59;5031451;28;20045;-73
2023/07/15 08:29:40;;;;;;;0.00;0.00;;;;;;;29.33;51.10;100543.19;5031486;28;20037;-73
2023/07/15 08:32:06;;;;;;;0.00;0.00;;;;;;;29.20;50.76;100532.56;5032008;28;20481;-74
2023/07/15 08:34:32;;;;;;;0.00;0.00;;;;;;;29.61;49.43;100536.72;5031367;28;20029;-73
2023/07/15 08:36:58;;;;;;;0.00;0.00;;;;;;;29.44;49.68;100543.44;5031322;28;20056;-72
2023/07/15 08:39:24;;;;;;;0.00;0.00;;;;;;;29.32;50.39;100544.34;5031255;28;20021;-73
2023/07/15 08:41:53;;;;;;;0.00;0.00;;;;;;;29.63;49.61;100548.25;5031103;28;20048;-72
2023/07/15 08:44:19;;;;;;;0.00;0.00;;;;;;;29.87;48.69;100539.75;5030361;28;20487;-72
2023/07/15 08:46:45;;;;;;;0.00;0.00;;;;;;;30.33;46.97;100538.00;5030584;28;20029;-72
2023/07/15 08:49:11;;;;;;;0.00;0.00;;;;;;;29.85;47.88;100544.84;5030425;28;20433;-73
2023/07/15 08:51:38;;;;;;;0.00;0.00;;;;;;;30.40;47.28;100538.94;5030659;28;20029;-72
2023/07/15 08:54:08;;;;;;;0.00;0.00;;;;;;;30.54;46.76;100527.34;5030554;28;20049;-73
2023/07/15 08:56:36;;;;;;;;;;;;;;;30.92;45.47;100541.16;5031336;28;20041;-74
2023/07/15 08:59:05;;;;;;;0.00;0.00;;;;;;;29.94;47.61;100531.56;5030955;28;19940;-72
2023/07/15 09:01:30;;;;;;;0.00;0.00;;;;;;;30.50;47.38;100532.81;5030580;28;20046;-74
2023/07/15 09:03:56;;;;;;;0.00;0.00;;;;;;;30.35;46.96;100541.22;5030868;28;20060;-71
2023/07/15 09:06:22;;;;;;;0.00;0.00;;;;;;;30.63;46.71;100545.34;5030602;28;20037;-72
2023/07/15 09:08:51;;;;;;;0.00;0.00;;;;;;;30.58;46.41;100542.88;5030031;28;20036;-72
2023/07/15 09:11:16;;;;;;;0.00;0.00;;;;;;;30.65;45.76;100548.56;5012818;28;20362;-73
2023/07/15 09:13:42;;;;;;;0.00;0.00;;;;;;;31.13;45.09;100549.88;5030595;28;20041;-72
2023/07/15 09:16:08;;;;;;;0.00;0.00;;;;;;;31.17;45.48;100542.44;5029015;28;20091;-72
2023/07/15 09:18:38;;;;;;;0.00;0.00;;;;;;;31.01;46.49;100553.66;5030434;28;20026;-74
2023/07/15 09:21:09;;;;;;;0.00;0.00;;;;;;;30.56;45.85;100553.53;5030432;28;20025;-73
2023/07/15 09:23:37;;;;;;;0.00;0.00;;;;;;;29.80;47.37;100556.22;5030238;28;20029;-73
2023/07/15 09:26:04;;;;;;;0.00;0.00;;;;;;;30.35;44.97;100550.31;5030434;28;20029;-72
2023/07/15 09:28:29;;;;;;;0.00;0.00;;;;;;;29.92;47.57;100564.38;5029872;28;20031;-72
2023/07/15 09:30:55;;;;;;;0.00;0.00;;;;;;;29.63;48.40;100557.34;5030264;28;20416;-73
2023/07/15 09:33:34;;;;;;;0.00;0.00;;;;;;;30.84;46.77;100556.88;5019981;28;20092;-73
2023/07/15 09:36:01;;;;;;;0.00;0.00;;;;;;;31.11;45.38;100566.13;5015876;28;20116;-73
2023/07/15 09:38:35;;;;;;;0.00;0.00;;;;;;;30.52;45.75;100555.44;5030386;28;20040;-72
2023/07/15 09:41:00;;;;;;;0.00;0.00;;;;;;;30.44;45.34;100570.34;5031180;28;20029;-72
2023/07/15 09:43:49;;;;;;;0.00;0.00;;;;;;;31.13;44.33;100564.56;5030784;28;20473;-72
2023/07/15 09:46:17;;;;;;;0.00;0.00;;;;;;;30.29;44.93;100566.44;5049678;28;20036;-73
2023/07/15 09:48:50;;;;;;;0.00;0.00;;;;;;;30.93;42.91;100570.53;5049717;28;20396;-73
2023/07/15 09:51:17;;;;;;;0.00;0.00;;;;;;;31.52;43.83;100568.03;5049300;28;20070;-73
2023/07/15 09:53:50;;;;;;;0.00;0.00;;;;;;;30.96;43.36;100567.81;5049180;28;20033;-72
2023/07/15 09:56:43;;;;;;;0.00;0.00;;;;;;;31.37;41.93;100563.38;5031595;28;20141;-72
2023/07/15 09:59:18;;;;;;;0.00;0.00;;;;;;;32.94;40.29;100565.22;5048683;28;20049;-72
2023/07/15 10:01:49;;;;;;;0.00;0.00;;;;;;;31.56;41.11;100563.34;5049487;28;20036;-74
2023/07/15 10:04:30;;;;;;;0.00;0.00;;;;;;;31.53;42.56;100575.19;5049534;28;20040;-74
2023/07/15 10:06:56;;;;;;;0.00;0.00;;;;;;;31.42;42.13;100576.19;5049202;28;20040;-72
2023/07/15 10:09:22;;;;;;;0.00;0.00;;;;;;;31.72;42.48;100579.88;5029373;28;20033;-73
2023/07/15 10:11:48;;;;;;;0.00;0.00;;;;;;;30.47;44.44;100579.91;5029248;28;20030;-71
2023/07/15 10:14:14;;;;;;;0.00;0.00;;;;;;;30.57;43.90;100577.31;5029808;28;20026;-73
2023/07/15 10:16:40;;;;;;;0.00;0.00;;;;;;;30.94;42.68;100575.72;5028876;28;20045;-71
2023/07/15 10:19:37;;;;;;;0.00;0.00;;;;;;;31.28;42.96;100576.72;5028905;28;20037;-71
2023/07/15 10:22:03;;;;;;;0.00;0.00;;;;;;;31.75;42.06;100570.78;5029297;28;20033;-72
2023/07/15 10:24:29;;;;;;;0.00;0.00;;;;;;;30.90;43.13;100572.06;5028525;28;20566;-73
2023/07/15 10:26:54;;;;;;;0.00;0.00;;;;;;;31.71;42.90;100559.59;5004366;28;20515;-72
2023/07/15 10:29:23;;;;;;;0.00;0.00;;;;;;;31.86;42.34;100575.31;5028629;28;20053;-72
2023/07/15 10:32:12;;;;;;;0.00;0.00;;;;;;;31.98;42.02;100566.78;5029464;28;20408;-72
2023/07/15 10:34:40;;;;;;;0.00;0.00;;;;;;;31.71;43.22;100562.38;5029352;28;20047;-72
2023/07/15 10:37:08;;;;;;;0.00;0.00;;;;;;;32.24;41.78;100562.34;5029166;28;20553;-72
2023/07/15 10:39:34;;;;;;;0.00;0.00;;;;;;;31.00;43.30;100570.66;5029135;28;20084;-73
2023/07/15 10:42:11;;;;;;;0.00;0.00;;;;;;;30.78;44.01;100574.97;5029356;28;20021;-74
2023/07/15 10:44:44;;;;;;;0.00;0.00;;;;;;;31.26;43.67;100578.25;5039831;28;20037;-74
2023/07/15 10:47:10;;;;;;;0.00;0.00;;;;;;;31.66;42.90;100571.06;5031830;28;20040;-72
2023/07/15 10:49:36;;;;;;;0.00;0.00;;;;;;;31.16;44.16;100563.03;5048878;28;20119;-73
2023/07/15 10:52:03;;;;;;;0.00;0.00;;;;;;;31.17;43.55;100561.88;5049066;28;20179;-74
2023/07/15 10:54:30;;;;;;;0.00;0.00;;;;;;;31.57;43.47;100564.13;5048828;28;20037;-74
2023/07/15 10:56:55;;;;;;;0.00;0.00;;;;;;;32.08;42.35;100572.91;5031151;28;20056;-75
2023/07/15 10:59:23;;;;;;;0.00;0.00;;;;;;;32.23;41.57;100578.28;5048903;28;20052;-73
2023/07/15 11:01:49;;;;;;;0.00;0.00;;;;;;;31.30;44.42;100574.38;5049539;28;20029;-73
2023/07/15 11:04:18;;;;;;;0.00;0.00;;;;;;;30.93;45.00;100559.44;5048914;28;20562;-75
2023/07/15 11:06:44;;;;;;;0.00;0.00;;;;;;;30.73;44.92;100552.28;5048796;28;20048;-73
2023/07/15 11:09:27;;;;;;;0.00;0.00;;;;;;;31.24;45.15;100561.97;5029803;28;20041;-74
2023/07/15 11:11:53;;;;;;;0.00;0.00;;;;;;;31.13;46.18;100566.53;5032883;28;20025;-75
2023/07/15 11:14:29;;;;;;;0.00;0.00;;;;;;;31.02;45.14;100565.53;5032492;28;20115;-69
2023/07/15 11:16:57;;;;;;;0.00;0.00;;;;;;;30.17;46.33;100557.44;5033188;28;20032;-74
2023/07/15 11:19:26;;;;;;;0.00;0.00;;;;;;;30.80;45.89;100547.66;5013988;28;20362;-75
2023/07/15 11:21:52;;;;;;;0.00;0.00;;;;;;;31.47;43.37;100548.91;5032338;28;20045;-73
2023/07/15 11:24:18;;;;;;;0.00;0.00;;;;;;;30.67;45.51;100548.19;5032335;28;20037;-74
2023/07/15 11:26:45;;;;;;;0.00;0.00;;;;;;;30.02;46.47;100552.72;5032290;28;20068;-74